sensor_id;sensor_type;location;lat;lon;timestamp;pressure;altitude;pressure_sealevel;temperature;humidity
63715;BME280;49858;48.956;9.076;2022-09-20T00:00:02;99307.88;;;9.13;nan
63715;BME280;49858;48.956;9.076;2022-09-20T00:02:30;99304.47;;;8.78;nan
63715;BME280;49858;48.956;9.076;2022-09-20T00:04:57;99302.94;;;8.60;nan
63715;BME280;49858;48.956;9.076;2022-09-20T00:07:25;99307.47;;;8.56;nan
63715;BME280;49858;48.956;9.076;2022-09-20T00:09:53;99306.03;;;8.50;nan
63715;BME280;49858;48.956;9.076;2022-09-20T00:12:22;99305.59;;;8.48;nan
63715;BME280;49858;48.956;9.076;2022-09-20T00:14:51;99303.25;;;8.67;nan
63715;BME280;49858;48.956;9.076;2022-09-20T00:17:18;99297.78;;;8.58;nan
63715;BME280;49858;48.956;9.076;2022-09-20T00:19:46;99299.06;;;8.61;nan
63715;BME280;49858;48.956;9.076;2022-09-20T00:22:14;99306.44;;;8.78;nan
63715;BME280;49858;48.956;9.076;2022-09-20T00:24:41;99306.63;;;8.64;nan
63715;BME280;49858;48.956;9.076;2022-09-20T00:27:14;99300.13;;;8.77;nan
63715;BME280;49858;48.956;9.076;2022-09-20T00:29:42;99298.22;;;8.69;nan
63715;BME280;49858;48.956;9.076;2022-09-20T00:32:11;99295.78;;;8.76;nan
63715;BME280;49858;48.956;9.076;2022-09-20T00:34:38;99293.50;;;8.78;nan
63715;BME280;49858;48.956;9.076;2022-09-20T00:37:24;99302.41;;;8.75;nan
63715;BME280;49858;48.956;9.076;2022-09-20T00:39:51;99302.31;;;8.92;nan
63715;BME280;49858;48.956;9.076;2022-09-20T00:42:24;99302.88;;;8.77;nan
63715;BME280;49858;48.956;9.076;2022-09-20T00:44:54;99296.94;;;8.75;nan
63715;BME280;49858;48.956;9.076;2022-09-20T00:47:32;99292.09;;;8.72;nan
63715;BME280;49858;48.956;9.076;2022-09-20T00:50:04;99298.91;;;8.66;nan
63715;BME280;49858;48.956;9.076;2022-09-20T00:52:34;99301.97;;;8.56;nan
63715;BME280;49858;48.956;9.076;2022-09-20T00:55:03;99296.50;;;8.56;nan
63715;BME280;49858;48.956;9.076;2022-09-20T00:57:33;99300.38;;;8.55;nan
63715;BME280;49858;48.956;9.076;2022-09-20T01:00:03;99294.41;;;8.61;nan
63715;BME280;49858;48.956;9.076;2022-09-20T01:02:32;99287.16;;;8.57;nan
63715;BME280;49858;48.956;9.076;2022-09-20T01:05:02;99292.84;;;8.52;nan
63715;BME280;49858;48.956;9.076;2022-09-20T01:07:30;99287.44;;;8.64;nan
63715;BME280;49858;48.956;9.076;2022-09-20T01:09:59;99276.88;;;8.83;nan
63715;BME280;49858;48.956;9.076;2022-09-20T01:12:28;99289.91;;;8.57;nan
63715;BME280;49858;48.956;9.076;2022-09-20T01:14:57;99289.31;;;8.42;nan
63715;BME280;49858;48.956;9.076;2022-09-20T01:17:25;99296.84;;;8.54;nan
63715;BME280;49858;48.956;9.076;2022-09-20T01:19:58;99294.09;;;8.54;nan
63715;BME280;49858;48.956;9.076;2022-09-20T01:22:34;99286.66;;;8.55;nan
63715;BME280;49858;48.956;9.076;2022-09-20T01:25:04;99286.13;;;8.70;nan
63715;BME280;49858;48.956;9.076;2022-09-20T01:27:39;99289.19;;;8.68;nan
63715;BME280;49858;48.956;9.076;2022-09-20T01:30:07;99292.44;;;8.70;nan
63715;BME280;49858;48.956;9.076;2022-09-20T01:32:40;99292.13;;;8.63;nan
63715;BME280;49858;48.956;9.076;2022-09-20T01:35:10;99294.84;;;8.72;nan
63715;BME280;49858;48.956;9.076;2022-09-20T01:37:42;99291.09;;;9.06;nan
63715;BME280;49858;48.956;9.076;2022-09-20T01:40:16;99281.28;;;9.05;nan
63715;BME280;49858;48.956;9.076;2022-09-20T01:42:49;99277.44;;;8.98;nan
63715;BME280;49858;48.956;9.076;2022-09-20T01:45:21;99285.00;;;9.01;nan
63715;BME280;49858;48.956;9.076;2022-09-20T01:47:51;99276.16;;;8.95;nan
63715;BME280;49858;48.956;9.076;2022-09-20T01:50:23;99271.63;;;8.99;nan
63715;BME280;49858;48.956;9.076;2022-09-20T01:53:03;99283.06;;;9.01;nan
63715;BME280;49858;48.956;9.076;2022-09-20T01:55:40;99281.69;;;8.86;nan
63715;BME280;49858;48.956;9.076;2022-09-20T02:01:08;99273.63;;;8.90;nan
63715;BME280;49858;48.956;9.076;2022-09-20T02:03:46;99276.28;;;8.69;nan
63715;BME280;49858;48.956;9.076;2022-09-20T02:06:24;99280.53;;;8.58;nan
63715;BME280;49858;48.956;9.076;2022-09-20T02:09:02;99278.88;;;8.65;nan
63715;BME280;49858;48.956;9.076;2022-09-20T02:11:37;99281.50;;;8.62;nan
63715;BME280;49858;48.956;9.076;2022-09-20T02:14:19;99293.75;;;8.56;nan
63715;BME280;49858;48.956;9.076;2022-09-20T02:16:56;99280.25;;;8.42;nan
63715;BME280;49858;48.956;9.076;2022-09-20T02:19:31;99290.09;;;8.52;nan
63715;BME280;49858;48.956;9.076;2022-09-20T02:22:07;99284.63;;;8.43;nan
63715;BME280;49858;48.956;9.076;2022-09-20T02:24:38;99284.75;;;8.47;nan
63715;BME280;49858;48.956;9.076;2022-09-20T02:27:12;99284.59;;;8.52;nan
63715;BME280;49858;48.956;9.076;2022-09-20T02:29:45;99283.13;;;8.54;nan
63715;BME280;49858;48.956;9.076;2022-09-20T02:32:20;99283.63;;;8.56;nan
63715;BME280;49858;48.956;9.076;2022-09-20T02:35:06;99285.22;;;8.57;nan
63715;BME280;49858;48.956;9.076;2022-09-20T02:37:44;99279.56;;;8.62;nan
63715;BME280;49858;48.956;9.076;2022-09-20T02:40:19;99276.47;;;8.64;nan
63715;BME280;49858;48.956;9.076;2022-09-20T02:42:50;99274.88;;;8.63;nan
63715;BME280;49858;48.956;9.076;2022-09-20T02:45:23;99273.72;;;8.64;nan
63715;BME280;49858;48.956;9.076;2022-09-20T02:47:53;99270.03;;;8.60;nan
63715;BME280;49858;48.956;9.076;2022-09-20T02:50:27;99271.63;;;8.61;nan
63715;BME280;49858;48.956;9.076;2022-09-20T02:53:02;99271.31;;;8.62;nan
63715;BME280;49858;48.956;9.076;2022-09-20T02:55:37;99260.34;;;8.62;nan
63715;BME280;49858;48.956;9.076;2022-09-20T02:58:10;99268.06;;;8.69;nan
63715;BME280;49858;48.956;9.076;2022-09-20T03:00:44;99269.97;;;8.77;nan
63715;BME280;49858;48.956;9.076;2022-09-20T03:03:18;99276.22;;;8.86;nan
63715;BME280;49858;48.956;9.076;2022-09-20T03:05:51;99263.22;;;9.25;nan
63715;BME280;49858;48.956;9.076;2022-09-20T03:08:26;99278.63;;;9.17;nan
63715;BME280;49858;48.956;9.076;2022-09-20T03:10:58;99273.97;;;8.80;nan
63715;BME280;49858;48.956;9.076;2022-09-20T03:13:29;99267.91;;;8.65;nan
63715;BME280;49858;48.956;9.076;2022-09-20T03:16:04;99276.53;;;8.47;nan
63715;BME280;49858;48.956;9.076;2022-09-20T03:18:40;99276.38;;;8.52;nan
63715;BME280;49858;48.956;9.076;2022-09-20T03:21:12;99282.16;;;8.50;nan
63715;BME280;49858;48.956;9.076;2022-09-20T03:23:50;99288.59;;;8.54;nan
63715;BME280;49858;48.956;9.076;2022-09-20T03:26:25;99288.47;;;8.51;nan
63715;BME280;49858;48.956;9.076;2022-09-20T03:28:58;99281.19;;;8.55;nan
63715;BME280;49858;48.956;9.076;2022-09-20T03:31:37;99285.41;;;8.52;nan
63715;BME280;49858;48.956;9.076;2022-09-20T03:34:15;99295.56;;;8.52;nan
63715;BME280;49858;48.956;9.076;2022-09-20T03:36:57;99297.09;;;8.70;nan
63715;BME280;49858;48.956;9.076;2022-09-20T03:39:36;99295.84;;;8.59;nan
63715;BME280;49858;48.956;9.076;2022-09-20T03:42:14;99293.25;;;8.62;nan
63715;BME280;49858;48.956;9.076;2022-09-20T03:47:29;99288.03;;;8.78;nan
63715;BME280;49858;48.956;9.076;2022-09-20T03:50:11;99293.63;;;8.90;nan
63715;BME280;49858;48.956;9.076;2022-09-20T03:52:51;99286.84;;;8.88;nan
63715;BME280;49858;48.956;9.076;2022-09-20T03:55:30;99294.53;;;8.65;nan
63715;BME280;49858;48.956;9.076;2022-09-20T03:58:05;99298.38;;;8.73;nan
63715;BME280;49858;48.956;9.076;2022-09-20T04:00:42;99298.91;;;8.66;nan
63715;BME280;49858;48.956;9.076;2022-09-20T04:03:22;99305.31;;;8.70;nan
63715;BME280;49858;48.956;9.076;2022-09-20T04:06:12;99307.63;;;8.59;nan
63715;BME280;49858;48.956;9.076;2022-09-20T04:08:48;99311.53;;;8.50;nan
63715;BME280;49858;48.956;9.076;2022-09-20T04:11:20;99312.31;;;8.59;nan
63715;BME280;49858;48.956;9.076;2022-09-20T04:13:53;99317.78;;;8.59;nan
63715;BME280;49858;48.956;9.076;2022-09-20T04:16:26;99313.78;;;8.56;nan
63715;BME280;49858;48.956;9.076;2022-09-20T04:18:57;99308.00;;;8.87;nan
63715;BME280;49858;48.956;9.076;2022-09-20T04:21:32;99312.84;;;8.90;nan
63715;BME280;49858;48.956;9.076;2022-09-20T04:24:02;99297.41;;;9.36;nan
63715;BME280;49858;48.956;9.076;2022-09-20T04:26:33;99305.13;;;9.13;nan
63715;BME280;49858;48.956;9.076;2022-09-20T04:29:07;99306.81;;;8.97;nan
63715;BME280;49858;48.956;9.076;2022-09-20T04:31:41;99297.53;;;8.81;nan
63715;BME280;49858;48.956;9.076;2022-09-20T04:34:14;99304.28;;;8.83;nan
63715;BME280;49858;48.956;9.076;2022-09-20T04:36:56;99303.47;;;8.91;nan
63715;BME280;49858;48.956;9.076;2022-09-20T04:39:30;99308.00;;;8.87;nan
63715;BME280;49858;48.956;9.076;2022-09-20T04:42:09;99311.50;;;8.58;nan
63715;BME280;49858;48.956;9.076;2022-09-20T04:53:37;99317.19;;;8.91;nan
63715;BME280;49858;48.956;9.076;2022-09-20T04:56:14;99319.47;;;9.19;nan
63715;BME280;49858;48.956;9.076;2022-09-20T04:58:45;99333.31;;;8.93;nan
63715;BME280;49858;48.956;9.076;2022-09-20T05:01:39;99326.03;;;8.59;nan
63715;BME280;49858;48.956;9.076;2022-09-20T05:10:01;99344.84;;;8.69;nan
63715;BME280;49858;48.956;9.076;2022-09-20T05:12:45;99341.56;;;8.84;nan
63715;BME280;49858;48.956;9.076;2022-09-20T05:15:27;99345.66;;;8.69;nan
63715;BME280;49858;48.956;9.076;2022-09-20T05:21:04;99346.34;;;9.05;nan
63715;BME280;49858;48.956;9.076;2022-09-20T05:23:44;99343.75;;;10.01;nan
63715;BME280;49858;48.956;9.076;2022-09-20T05:26:15;99327.78;;;10.15;nan
63715;BME280;49858;48.956;9.076;2022-09-20T05:28:52;99330.28;;;10.08;nan
63715;BME280;49858;48.956;9.076;2022-09-20T05:31:28;99338.66;;;9.90;nan
63715;BME280;49858;48.956;9.076;2022-09-20T05:34:01;99337.16;;;9.01;nan
63715;BME280;49858;48.956;9.076;2022-09-20T05:36:37;99351.78;;;8.75;nan
63715;BME280;49858;48.956;9.076;2022-09-20T05:39:09;99352.81;;;8.53;nan
63715;BME280;49858;48.956;9.076;2022-09-20T05:41:45;99351.34;;;8.56;nan
63715;BME280;49858;48.956;9.076;2022-09-20T05:44:22;99363.94;;;8.57;nan
63715;BME280;49858;48.956;9.076;2022-09-20T05:46:56;99353.16;;;8.43;nan
63715;BME280;49858;48.956;9.076;2022-09-20T05:49:30;99352.31;;;8.60;nan
63715;BME280;49858;48.956;9.076;2022-09-20T05:52:05;99349.13;;;8.49;nan
63715;BME280;49858;48.956;9.076;2022-09-20T05:54:45;99355.03;;;8.68;nan
63715;BME280;49858;48.956;9.076;2022-09-20T05:57:18;99353.25;;;8.73;nan
63715;BME280;49858;48.956;9.076;2022-09-20T05:59:54;99351.13;;;8.78;nan
63715;BME280;49858;48.956;9.076;2022-09-20T06:02:31;99360.38;;;9.62;nan
63715;BME280;49858;48.956;9.076;2022-09-20T06:05:02;99358.03;;;9.94;nan
63715;BME280;49858;48.956;9.076;2022-09-20T06:07:40;99358.09;;;10.27;nan
63715;BME280;49858;48.956;9.076;2022-09-20T06:12:59;99368.03;;;9.98;nan
63715;BME280;49858;48.956;9.076;2022-09-20T06:15:35;99364.13;;;9.99;nan
63715;BME280;49858;48.956;9.076;2022-09-20T06:18:12;99369.81;;;9.23;nan
63715;BME280;49858;48.956;9.076;2022-09-20T06:20:43;99367.34;;;9.60;nan
63715;BME280;49858;48.956;9.076;2022-09-20T06:23:12;99374.84;;;9.51;nan
63715;BME280;49858;48.956;9.076;2022-09-20T06:25:41;99371.09;;;8.87;nan
63715;BME280;49858;48.956;9.076;2022-09-20T06:28:15;99376.91;;;8.86;nan
63715;BME280;49858;48.956;9.076;2022-09-20T06:30:44;99376.69;;;8.61;nan
63715;BME280;49858;48.956;9.076;2022-09-20T06:33:14;99376.97;;;8.68;nan
63715;BME280;49858;48.956;9.076;2022-09-20T06:35:44;99381.88;;;8.92;nan
63715;BME280;49858;48.956;9.076;2022-09-20T06:38:21;99379.47;;;9.29;nan
63715;BME280;49858;48.956;9.076;2022-09-20T06:41:11;99383.63;;;9.06;nan
63715;BME280;49858;48.956;9.076;2022-09-20T06:43:58;99375.84;;;9.67;nan
63715;BME280;49858;48.956;9.076;2022-09-20T06:46:26;99383.50;;;9.82;nan
63715;BME280;49858;48.956;9.076;2022-09-20T06:48:54;99385.47;;;10.03;nan
63715;BME280;49858;48.956;9.076;2022-09-20T06:51:22;99374.03;;;9.92;nan
63715;BME280;49858;48.956;9.076;2022-09-20T06:53:51;99384.97;;;10.01;nan
63715;BME280;49858;48.956;9.076;2022-09-20T06:56:21;99389.00;;;10.03;nan
63715;BME280;49858;48.956;9.076;2022-09-20T06:58:50;99386.31;;;9.94;nan
63715;BME280;49858;48.956;9.076;2022-09-20T07:01:19;99385.19;;;10.16;nan
63715;BME280;49858;48.956;9.076;2022-09-20T07:03:55;99386.97;;;9.91;nan
63715;BME280;49858;48.956;9.076;2022-09-20T07:06:22;99393.16;;;9.88;nan
63715;BME280;49858;48.956;9.076;2022-09-20T07:08:50;99392.44;;;10.21;nan
63715;BME280;49858;48.956;9.076;2022-09-20T07:11:18;99380.63;;;10.41;nan
63715;BME280;49858;48.956;9.076;2022-09-20T07:13:48;99379.03;;;11.10;nan
63715;BME280;49858;48.956;9.076;2022-09-20T07:16:16;99383.25;;;11.57;nan
63715;BME280;49858;48.956;9.076;2022-09-20T07:18:45;99379.16;;;11.50;nan
63715;BME280;49858;48.956;9.076;2022-09-20T07:21:14;99376.38;;;11.63;nan
63715;BME280;49858;48.956;9.076;2022-09-20T07:23:42;99377.22;;;11.39;nan
63715;BME280;49858;48.956;9.076;2022-09-20T07:26:15;99376.97;;;11.32;nan
63715;BME280;49858;48.956;9.076;2022-09-20T07:28:43;99377.44;;;10.97;nan
63715;BME280;49858;48.956;9.076;2022-09-20T07:31:11;99382.81;;;10.93;nan
63715;BME280;49858;48.956;9.076;2022-09-20T07:33:38;99376.41;;;11.26;nan
63715;BME280;49858;48.956;9.076;2022-09-20T07:36:08;99376.25;;;11.84;nan
63715;BME280;49858;48.956;9.076;2022-09-20T07:38:36;99379.03;;;11.59;nan
63715;BME280;49858;48.956;9.076;2022-09-20T07:41:04;99376.84;;;11.04;nan
63715;BME280;49858;48.956;9.076;2022-09-20T07:43:32;99386.13;;;11.60;nan
63715;BME280;49858;48.956;9.076;2022-09-20T07:46:00;99386.69;;;11.78;nan
63715;BME280;49858;48.956;9.076;2022-09-20T07:48:28;99384.16;;;11.97;nan
63715;BME280;49858;48.956;9.076;2022-09-20T07:50:56;99384.69;;;12.03;nan
63715;BME280;49858;48.956;9.076;2022-09-20T07:53:25;99381.13;;;12.15;nan
63715;BME280;49858;48.956;9.076;2022-09-20T07:55:57;99389.03;;;12.16;nan
63715;BME280;49858;48.956;9.076;2022-09-20T07:58:25;99398.31;;;12.52;nan
63715;BME280;49858;48.956;9.076;2022-09-20T08:00:53;99394.47;;;12.85;nan
63715;BME280;49858;48.956;9.076;2022-09-20T08:03:21;99387.94;;;14.26;nan
63715;BME280;49858;48.956;9.076;2022-09-20T08:05:49;99373.72;;;15.36;nan
63715;BME280;49858;48.956;9.076;2022-09-20T08:08:17;99378.03;;;15.33;nan
63715;BME280;49858;48.956;9.076;2022-09-20T08:10:46;99377.69;;;14.89;nan
63715;BME280;49858;48.956;9.076;2022-09-20T08:13:14;99375.84;;;15.69;nan
63715;BME280;49858;48.956;9.076;2022-09-20T08:16:02;99389.25;;;15.17;nan
63715;BME280;49858;48.956;9.076;2022-09-20T08:18:30;99383.66;;;15.14;nan
63715;BME280;49858;48.956;9.076;2022-09-20T08:21:01;99389.44;;;15.77;nan
63715;BME280;49858;48.956;9.076;2022-09-20T08:23:32;99383.09;;;17.08;nan
63715;BME280;49858;48.956;9.076;2022-09-20T08:26:01;99386.09;;;15.65;nan
63715;BME280;49858;48.956;9.076;2022-09-20T08:28:29;99389.63;;;16.22;nan
63715;BME280;49858;48.956;9.076;2022-09-20T08:31:02;99386.78;;;15.35;nan
63715;BME280;49858;48.956;9.076;2022-09-20T08:33:29;99386.00;;;15.12;nan
63715;BME280;49858;48.956;9.076;2022-09-20T08:35:57;99396.78;;;16.23;nan
63715;BME280;49858;48.956;9.076;2022-09-20T08:38:25;99386.78;;;16.48;nan
63715;BME280;49858;48.956;9.076;2022-09-20T08:41:16;99392.56;;;16.02;nan
63715;BME280;49858;48.956;9.076;2022-09-20T08:43:47;99386.94;;;15.46;nan
63715;BME280;49858;48.956;9.076;2022-09-20T08:46:17;99378.47;;;15.35;nan
63715;BME280;49858;48.956;9.076;2022-09-20T08:48:48;99382.00;;;15.58;nan
63715;BME280;49858;48.956;9.076;2022-09-20T08:51:17;99385.44;;;14.79;nan
63715;BME280;49858;48.956;9.076;2022-09-20T08:53:49;99383.81;;;15.47;nan
63715;BME280;49858;48.956;9.076;2022-09-20T08:56:20;99385.84;;;15.50;nan
63715;BME280;49858;48.956;9.076;2022-09-20T08:58:48;99384.59;;;15.48;nan
63715;BME280;49858;48.956;9.076;2022-09-20T09:01:17;99379.69;;;16.88;nan
63715;BME280;49858;48.956;9.076;2022-09-20T09:03:46;99376.66;;;17.00;nan
63715;BME280;49858;48.956;9.076;2022-09-20T09:06:17;99377.78;;;15.95;nan
63715;BME280;49858;48.956;9.076;2022-09-20T09:08:46;99384.81;;;15.36;nan
63715;BME280;49858;48.956;9.076;2022-09-20T09:11:17;99382.69;;;15.02;nan
63715;BME280;49858;48.956;9.076;2022-09-20T09:13:48;99389.88;;;15.07;nan
63715;BME280;49858;48.956;9.076;2022-09-20T09:16:19;99383.75;;;14.75;nan
63715;BME280;49858;48.956;9.076;2022-09-20T09:18:51;99386.78;;;15.62;nan
63715;BME280;49858;48.956;9.076;2022-09-20T09:21:19;99377.13;;;15.02;nan
63715;BME280;49858;48.956;9.076;2022-09-20T09:23:49;99383.63;;;15.37;nan
63715;BME280;49858;48.956;9.076;2022-09-20T09:26:18;99388.94;;;14.99;nan
63715;BME280;49858;48.956;9.076;2022-09-20T09:28:47;99379.53;;;15.76;nan
63715;BME280;49858;48.956;9.076;2022-09-20T09:31:33;99379.06;;;16.01;nan
63715;BME280;49858;48.956;9.076;2022-09-20T09:34:02;99380.53;;;15.91;nan
63715;BME280;49858;48.956;9.076;2022-09-20T09:36:30;99376.75;;;17.11;nan
63715;BME280;49858;48.956;9.076;2022-09-20T09:39:14;99383.13;;;17.67;nan
63715;BME280;49858;48.956;9.076;2022-09-20T09:41:42;99374.66;;;16.64;nan
63715;BME280;49858;48.956;9.076;2022-09-20T09:44:20;99366.22;;;16.53;nan
63715;BME280;49858;48.956;9.076;2022-09-20T09:46:48;99368.75;;;16.69;nan
63715;BME280;49858;48.956;9.076;2022-09-20T09:49:17;99376.16;;;17.91;nan
63715;BME280;49858;48.956;9.076;2022-09-20T09:52:02;99372.25;;;17.44;nan
63715;BME280;49858;48.956;9.076;2022-09-20T09:54:30;99372.94;;;17.85;nan
63715;BME280;49858;48.956;9.076;2022-09-20T09:57:04;99382.09;;;16.56;nan
63715;BME280;49858;48.956;9.076;2022-09-20T09:59:45;99377.84;;;16.99;nan
63715;BME280;49858;48.956;9.076;2022-09-20T10:02:21;99382.00;;;16.79;nan
63715;BME280;49858;48.956;9.076;2022-09-20T10:04:56;99376.06;;;17.25;nan
63715;BME280;49858;48.956;9.076;2022-09-20T10:07:27;99372.31;;;17.54;nan
63715;BME280;49858;48.956;9.076;2022-09-20T10:10:00;99379.34;;;17.89;nan
63715;BME280;49858;48.956;9.076;2022-09-20T10:12:40;99370.13;;;16.48;nan
63715;BME280;49858;48.956;9.076;2022-09-20T10:15:17;99371.09;;;16.63;nan
63715;BME280;49858;48.956;9.076;2022-09-20T10:17:49;99379.22;;;15.81;nan
63715;BME280;49858;48.956;9.076;2022-09-20T10:20:28;99372.56;;;15.63;nan
63715;BME280;49858;48.956;9.076;2022-09-20T10:23:01;99372.34;;;14.38;nan
63715;BME280;49858;48.956;9.076;2022-09-20T10:25:54;99374.78;;;16.41;nan
63715;BME280;49858;48.956;9.076;2022-09-20T10:28:32;99366.91;;;16.46;nan
63715;BME280;49858;48.956;9.076;2022-09-20T10:31:06;99367.78;;;16.17;nan
63715;BME280;49858;48.956;9.076;2022-09-20T10:33:37;99366.88;;;16.09;nan
63715;BME280;49858;48.956;9.076;2022-09-20T10:36:13;99364.59;;;16.15;nan
63715;BME280;49858;48.956;9.076;2022-09-20T10:38:44;99361.38;;;16.13;nan
63715;BME280;49858;48.956;9.076;2022-09-20T10:41:20;99365.25;;;16.38;nan
63715;BME280;49858;48.956;9.076;2022-09-20T10:44:13;99365.69;;;15.80;nan
63715;BME280;49858;48.956;9.076;2022-09-20T10:46:50;99370.59;;;16.54;nan
63715;BME280;49858;48.956;9.076;2022-09-20T10:49:20;99370.97;;;16.52;nan
63715;BME280;49858;48.956;9.076;2022-09-20T10:51:55;99365.81;;;15.87;nan
63715;BME280;49858;48.956;9.076;2022-09-20T10:54:29;99367.75;;;17.80;nan
63715;BME280;49858;48.956;9.076;2022-09-20T10:57:07;99360.53;;;18.62;nan
63715;BME280;49858;48.956;9.076;2022-09-20T10:59:41;99366.00;;;18.34;nan
63715;BME280;49858;48.956;9.076;2022-09-20T11:02:16;99369.19;;;15.50;nan
63715;BME280;49858;48.956;9.076;2022-09-20T11:05:04;99353.06;;;14.83;nan
63715;BME280;49858;48.956;9.076;2022-09-20T11:07:39;99367.19;;;14.36;nan
63715;BME280;49858;48.956;9.076;2022-09-20T11:10:13;99368.34;;;15.20;nan
63715;BME280;49858;48.956;9.076;2022-09-20T11:12:45;99369.75;;;14.87;nan
63715;BME280;49858;48.956;9.076;2022-09-20T11:15:18;99366.16;;;14.64;nan
63715;BME280;49858;48.956;9.076;2022-09-20T11:17:51;99362.25;;;14.26;nan
63715;BME280;49858;48.956;9.076;2022-09-20T11:20:24;99369.22;;;14.59;nan
63715;BME280;49858;48.956;9.076;2022-09-20T11:22:54;99376.66;;;15.20;nan
63715;BME280;49858;48.956;9.076;2022-09-20T11:25:28;99364.31;;;15.17;nan
63715;BME280;49858;48.956;9.076;2022-09-20T11:28:00;99366.69;;;14.92;nan
63715;BME280;49858;48.956;9.076;2022-09-20T11:30:29;99369.81;;;14.48;nan
63715;BME280;49858;48.956;9.076;2022-09-20T11:32:59;99364.69;;;14.93;nan
63715;BME280;49858;48.956;9.076;2022-09-20T11:35:31;99360.75;;;14.71;nan
63715;BME280;49858;48.956;9.076;2022-09-20T11:38:02;99368.69;;;14.33;nan
63715;BME280;49858;48.956;9.076;2022-09-20T11:40:33;99362.16;;;16.09;nan
63715;BME280;49858;48.956;9.076;2022-09-20T11:43:03;99354.00;;;16.24;nan
63715;BME280;49858;48.956;9.076;2022-09-20T11:45:32;99352.25;;;15.55;nan
63715;BME280;49858;48.956;9.076;2022-09-20T11:48:02;99357.16;;;15.92;nan
63715;BME280;49858;48.956;9.076;2022-09-20T11:50:41;99351.22;;;16.98;nan
63715;BME280;49858;48.956;9.076;2022-09-20T11:53:14;99357.97;;;18.14;nan
63715;BME280;49858;48.956;9.076;2022-09-20T11:55:47;99352.41;;;16.60;nan
63715;BME280;49858;48.956;9.076;2022-09-20T11:58:17;99352.28;;;17.27;nan
63715;BME280;49858;48.956;9.076;2022-09-20T12:00:48;99338.75;;;16.10;nan
63715;BME280;49858;48.956;9.076;2022-09-20T12:03:22;99341.44;;;17.15;nan
63715;BME280;49858;48.956;9.076;2022-09-20T12:05:57;99347.44;;;17.21;nan
63715;BME280;49858;48.956;9.076;2022-09-20T12:08:26;99343.16;;;16.49;nan
63715;BME280;49858;48.956;9.076;2022-09-20T12:10:56;99340.91;;;17.50;nan
63715;BME280;49858;48.956;9.076;2022-09-20T12:13:27;99330.69;;;17.69;nan
63715;BME280;49858;48.956;9.076;2022-09-20T12:15:58;99332.50;;;17.43;nan
63715;BME280;49858;48.956;9.076;2022-09-20T12:18:37;99325.41;;;16.60;nan
63715;BME280;49858;48.956;9.076;2022-09-20T12:21:15;99332.66;;;18.45;nan
63715;BME280;49858;48.956;9.076;2022-09-20T12:26:40;99328.44;;;20.53;nan
63715;BME280;49858;48.956;9.076;2022-09-20T12:31:57;99319.97;;;20.63;nan
63715;BME280;49858;48.956;9.076;2022-09-20T12:34:33;99317.63;;;21.14;nan
63715;BME280;49858;48.956;9.076;2022-09-20T12:37:16;99321.44;;;20.82;nan
63715;BME280;49858;48.956;9.076;2022-09-20T12:39:49;99326.16;;;20.23;nan
63715;BME280;49858;48.956;9.076;2022-09-20T12:42:26;99318.22;;;20.10;nan
63715;BME280;49858;48.956;9.076;2022-09-20T12:44:57;99320.72;;;19.87;nan
63715;BME280;49858;48.956;9.076;2022-09-20T12:47:25;99324.28;;;19.91;nan
63715;BME280;49858;48.956;9.076;2022-09-20T12:49:56;99321.97;;;18.86;nan
63715;BME280;49858;48.956;9.076;2022-09-20T12:52:53;99323.09;;;18.56;nan
63715;BME280;49858;48.956;9.076;2022-09-20T12:55:36;99329.16;;;18.80;nan
63715;BME280;49858;48.956;9.076;2022-09-20T12:58:16;99330.34;;;18.86;nan
63715;BME280;49858;48.956;9.076;2022-09-20T13:00:46;99325.97;;;18.78;nan
63715;BME280;49858;48.956;9.076;2022-09-20T13:03:25;99322.69;;;18.51;nan
63715;BME280;49858;48.956;9.076;2022-09-20T13:08:39;99328.69;;;17.66;nan
63715;BME280;49858;48.956;9.076;2022-09-20T13:11:09;99329.38;;;17.48;nan
63715;BME280;49858;48.956;9.076;2022-09-20T13:13:42;99332.38;;;17.25;nan
63715;BME280;49858;48.956;9.076;2022-09-20T13:16:15;99334.41;;;16.80;nan
63715;BME280;49858;48.956;9.076;2022-09-20T13:18:45;99335.63;;;15.82;nan
63715;BME280;49858;48.956;9.076;2022-09-20T13:21:14;99336.47;;;15.86;nan
63715;BME280;49858;48.956;9.076;2022-09-20T13:23:45;99330.94;;;16.20;nan
63715;BME280;49858;48.956;9.076;2022-09-20T13:26:14;99327.66;;;15.80;nan
63715;BME280;49858;48.956;9.076;2022-09-20T13:28:46;99329.50;;;15.69;nan
63715;BME280;49858;48.956;9.076;2022-09-20T13:36:55;99339.56;;;15.54;nan
63715;BME280;49858;48.956;9.076;2022-09-20T13:39:27;99341.22;;;14.87;nan
63715;BME280;49858;48.956;9.076;2022-09-20T13:41:59;99346.34;;;15.07;nan
63715;BME280;49858;48.956;9.076;2022-09-20T13:44:30;99341.97;;;15.06;nan
63715;BME280;49858;48.956;9.076;2022-09-20T13:46:59;99348.16;;;14.96;nan
63715;BME280;49858;48.956;9.076;2022-09-20T13:49:30;99351.78;;;14.58;nan
63715;BME280;49858;48.956;9.076;2022-09-20T13:51:58;99350.78;;;13.53;nan
63715;BME280;49858;48.956;9.076;2022-09-20T13:54:28;99360.00;;;13.42;nan
63715;BME280;49858;48.956;9.076;2022-09-20T13:56:56;99357.69;;;12.96;nan
63715;BME280;49858;48.956;9.076;2022-09-20T13:59:25;99355.28;;;13.26;nan
63715;BME280;49858;48.956;9.076;2022-09-20T14:01:56;99357.34;;;13.14;nan
63715;BME280;49858;48.956;9.076;2022-09-20T14:04:24;99351.56;;;12.43;nan
63715;BME280;49858;48.956;9.076;2022-09-20T14:06:52;99349.97;;;12.42;nan
63715;BME280;49858;48.956;9.076;2022-09-20T14:09:24;99354.00;;;12.61;nan
63715;BME280;49858;48.956;9.076;2022-09-20T14:11:55;99346.44;;;12.58;nan
63715;BME280;49858;48.956;9.076;2022-09-20T14:14:24;99346.19;;;13.42;nan
63715;BME280;49858;48.956;9.076;2022-09-20T14:16:55;99344.69;;;13.64;nan
63715;BME280;49858;48.956;9.076;2022-09-20T14:19:25;99343.00;;;14.14;nan
63715;BME280;49858;48.956;9.076;2022-09-20T14:21:54;99333.38;;;14.46;nan
63715;BME280;49858;48.956;9.076;2022-09-20T14:24:24;99330.72;;;14.73;nan
63715;BME280;49858;48.956;9.076;2022-09-20T14:27:03;99333.50;;;14.34;nan
63715;BME280;49858;48.956;9.076;2022-09-20T14:29:37;99329.72;;;14.62;nan
63715;BME280;49858;48.956;9.076;2022-09-20T14:32:08;99325.38;;;14.83;nan
63715;BME280;49858;48.956;9.076;2022-09-20T14:34:38;99335.13;;;15.00;nan
63715;BME280;49858;48.956;9.076;2022-09-20T14:37:08;99332.00;;;14.56;nan